createdAt,value
2018-05-15T00:02:15.531Z,5.03
2018-05-15T00:04:45.777Z,5.07
2018-05-15T00:07:13.381Z,5.05
2018-05-15T00:09:42.046Z,4.82
2018-05-15T00:14:48.847Z,5.43
2018-05-15T00:17:18.971Z,5.03
2018-05-15T00:22:24.785Z,5.53
2018-05-15T00:24:52.305Z,5.00
2018-05-15T00:27:20.129Z,5.68
2018-05-15T00:29:47.639Z,4.82
2018-05-15T00:32:15.427Z,5.03
2018-05-15T00:34:42.866Z,5.50
2018-05-15T00:37:10.371Z,5.10
2018-05-15T00:39:37.827Z,5.65
2018-05-15T00:42:14.908Z,5.62
2018-05-15T00:44:42.377Z,5.20
2018-05-15T00:47:10.146Z,5.82
2018-05-15T00:49:37.608Z,5.40
2018-05-15T00:52:28.807Z,5.70
2018-05-15T00:55:08.708Z,5.60
2018-05-15T00:57:36.517Z,5.93
2018-05-15T01:00:03.976Z,6.03
2018-05-15T01:02:31.430Z,5.60
2018-05-15T01:04:58.881Z,5.60
2018-05-15T01:07:26.314Z,6.00
2018-05-15T01:09:53.768Z,5.93
2018-05-15T01:12:21.827Z,5.40
2018-05-15T01:14:49.570Z,5.72
2018-05-15T01:17:17.329Z,5.95
2018-05-15T01:19:45.096Z,6.43
2018-05-15T01:22:14.016Z,6.22
2018-05-15T01:24:41.478Z,6.03
2018-05-15T01:27:09.043Z,6.18
2018-05-15T01:29:36.562Z,5.78
2018-05-15T01:32:04.110Z,6.25
2018-05-15T01:34:31.613Z,5.55
2018-05-15T01:36:59.146Z,6.50
2018-05-15T01:39:26.852Z,5.82
2018-05-15T01:41:54.303Z,6.60
2018-05-15T01:44:21.904Z,6.32
2018-05-15T01:46:49.427Z,6.37
2018-05-15T01:49:17.021Z,6.65
2018-05-15T01:51:44.463Z,7.05
2018-05-15T01:54:11.982Z,6.78
2018-05-15T01:56:40.212Z,6.78
2018-05-15T01:59:07.659Z,6.78
2018-05-15T02:01:35.148Z,6.87
2018-05-15T02:04:02.618Z,7.28
2018-05-15T02:06:31.189Z,7.22
2018-05-15T02:08:58.690Z,7.30
2018-05-15T02:11:26.132Z,6.75
2018-05-15T02:13:53.586Z,6.75
2018-05-15T02:16:21.026Z,7.10
2018-05-15T02:18:48.872Z,6.87
2018-05-15T02:21:16.341Z,6.43
2018-05-15T02:23:44.705Z,6.93
2018-05-15T02:26:12.160Z,7.12
2018-05-15T02:28:39.608Z,6.72
2018-05-15T02:31:07.102Z,6.53
2018-05-15T02:33:34.782Z,6.97
2018-05-15T02:36:02.251Z,6.43
2018-05-15T02:38:29.677Z,6.70
2018-05-15T02:40:57.142Z,7.18
2018-05-15T02:43:24.594Z,7.18
2018-05-15T02:45:52.077Z,6.97
2018-05-15T02:48:19.575Z,6.93
2018-05-15T02:50:47.043Z,7.25
2018-05-15T02:53:14.766Z,6.87
2018-05-15T02:55:42.234Z,6.93
2018-05-15T02:58:09.666Z,6.80
2018-05-15T03:00:37.150Z,7.15
2018-05-15T03:06:02.012Z,7.18
2018-05-15T03:08:29.481Z,7.20
2018-05-15T03:10:56.942Z,6.72
2018-05-15T03:13:30.516Z,7.20
2018-05-15T03:15:58.301Z,7.28
2018-05-15T03:18:25.781Z,7.45
2018-05-15T03:20:53.440Z,6.85
2018-05-15T03:23:22.782Z,6.87
2018-05-15T03:25:50.915Z,7.22
2018-05-15T03:28:19.577Z,6.97
2018-05-15T03:30:48.063Z,6.97
2018-05-15T03:33:15.582Z,7.35
2018-05-15T03:35:43.200Z,7.12
2018-05-15T03:38:11.568Z,7.50
2018-05-15T03:40:38.998Z,7.37
2018-05-15T03:49:06.501Z,7.70
2018-05-15T03:51:33.968Z,8.05
2018-05-15T03:54:01.427Z,7.50
2018-05-15T03:56:28.875Z,7.32
2018-05-15T03:58:56.317Z,7.43
2018-05-15T04:01:35.603Z,7.93
2018-05-15T04:04:15.235Z,7.62
2018-05-15T04:06:54.535Z,7.68
2018-05-15T04:09:22.098Z,7.35
2018-05-15T04:11:49.573Z,7.80
2018-05-15T04:14:17.034Z,7.87
2018-05-15T04:16:44.489Z,7.32
2018-05-15T04:19:11.999Z,11.12
2018-05-15T04:21:39.486Z,8.30
2018-05-15T04:24:06.931Z,8.50
2018-05-15T04:26:34.407Z,7.50
2018-05-15T04:29:01.860Z,7.75
2018-05-15T04:31:29.297Z,7.28
2018-05-15T04:33:56.784Z,8.18
2018-05-15T04:36:25.242Z,7.93
2018-05-15T04:38:52.952Z,8.00
2018-05-15T04:41:20.641Z,8.00
2018-05-15T04:43:48.611Z,7.93
2018-05-15T04:46:16.020Z,7.75
2018-05-15T04:48:43.487Z,8.07
2018-05-15T04:51:11.028Z,7.85
2018-05-15T04:53:38.491Z,7.90
2018-05-15T04:56:05.958Z,7.37
2018-05-15T04:58:33.440Z,7.30
2018-05-15T05:01:00.968Z,7.97
2018-05-15T05:06:30.696Z,7.70
2018-05-15T05:08:58.631Z,8.20
2018-05-15T05:14:28.581Z,7.80
2018-05-15T05:16:56.450Z,7.57
2018-05-15T05:19:23.911Z,9.23
2018-05-15T05:21:51.369Z,8.47
2018-05-15T05:24:18.851Z,7.90
2018-05-15T05:26:46.390Z,8.63
2018-05-15T05:29:14.135Z,7.40
2018-05-15T05:31:41.603Z,7.47
2018-05-15T05:34:09.072Z,8.10
2018-05-15T05:36:36.524Z,8.20
2018-05-15T05:39:03.986Z,8.43
2018-05-15T05:41:36.474Z,8.25
2018-05-15T05:44:03.907Z,7.93
2018-05-15T05:46:31.404Z,8.63
2018-05-15T05:48:58.887Z,7.68
2018-05-15T05:51:26.346Z,7.90
2018-05-15T05:53:53.802Z,8.53
2018-05-15T05:56:21.264Z,7.72
2018-05-15T05:58:48.748Z,8.13
2018-05-15T06:01:16.204Z,7.60
2018-05-15T06:03:43.655Z,7.60
2018-05-15T06:06:11.113Z,8.27
2018-05-15T06:08:38.583Z,8.10
2018-05-15T06:11:06.028Z,7.65
2018-05-15T06:13:38.417Z,7.65
2018-05-15T06:16:05.857Z,7.22
2018-05-15T06:18:33.807Z,7.65
2018-05-15T06:21:01.357Z,7.03
2018-05-15T06:23:28.777Z,7.90
2018-05-15T06:25:56.227Z,7.07
2018-05-15T06:28:23.700Z,7.35
2018-05-15T06:30:51.296Z,7.78
2018-05-15T06:33:19.698Z,6.62
2018-05-15T06:35:47.168Z,7.80
2018-05-15T06:38:14.688Z,7.68
2018-05-15T06:40:42.170Z,7.10
2018-05-15T06:43:23.909Z,6.35
2018-05-15T06:45:51.354Z,6.72
2018-05-15T06:48:18.800Z,6.60
2018-05-15T06:50:46.239Z,7.87
2018-05-15T06:53:32.992Z,7.50
2018-05-15T06:56:00.432Z,6.82
2018-05-15T06:58:27.900Z,7.70
2018-05-15T07:00:55.367Z,6.85
2018-05-15T07:03:22.903Z,7.10
2018-05-15T07:05:50.350Z,6.93
2018-05-15T07:08:18.318Z,8.52
2018-05-15T07:10:45.805Z,6.93
2018-05-15T07:13:13.279Z,7.35
2018-05-15T07:15:40.736Z,6.97
2018-05-15T07:18:08.330Z,6.68
2018-05-15T07:20:35.814Z,6.80
2018-05-15T07:23:03.358Z,6.57
2018-05-15T07:25:30.817Z,6.18
2018-05-15T07:27:58.329Z,7.30
2018-05-15T07:30:25.829Z,7.00
2018-05-15T07:32:53.312Z,6.80
2018-05-15T07:35:20.762Z,6.25
2018-05-15T07:37:48.241Z,6.37
2018-05-15T07:40:15.984Z,6.05
2018-05-15T07:42:43.449Z,7.97
2018-05-15T07:45:10.880Z,7.07
2018-05-15T07:47:38.393Z,6.93
2018-05-15T07:50:06.898Z,5.85
2018-05-15T07:52:34.814Z,7.15
2018-05-15T07:55:02.332Z,6.90
2018-05-15T07:57:29.806Z,6.60
2018-05-15T07:59:57.194Z,5.62
2018-05-15T08:02:25.513Z,5.70
2018-05-15T08:04:53.062Z,7.68
2018-05-15T08:07:20.482Z,6.45
2018-05-15T08:09:47.906Z,8.80
2018-05-15T08:12:15.384Z,7.37
2018-05-15T08:14:42.805Z,6.87
2018-05-15T08:17:10.250Z,5.85
2018-05-15T08:19:37.942Z,5.82
2018-05-15T08:22:05.393Z,7.28
2018-05-15T08:24:32.885Z,7.68
2018-05-15T08:27:00.332Z,7.00
2018-05-15T08:29:27.926Z,6.40
2018-05-15T08:31:55.362Z,6.30
2018-05-15T08:34:22.809Z,6.12
2018-05-15T08:36:50.245Z,6.15
2018-05-15T08:39:17.907Z,5.65
2018-05-15T08:41:55.097Z,6.80
2018-05-15T08:44:22.634Z,6.00
2018-05-15T08:46:50.116Z,6.80
2018-05-15T08:49:17.563Z,6.12
2018-05-15T08:51:50.047Z,6.97
2018-05-15T08:54:17.508Z,6.95
2018-05-15T08:56:44.966Z,9.00
2018-05-15T08:59:12.443Z,7.15
2018-05-15T09:01:39.877Z,6.75
2018-05-15T09:04:07.345Z,6.90
2018-05-15T09:06:34.795Z,6.40
2018-05-15T09:09:02.262Z,6.35
2018-05-15T09:11:29.758Z,6.75
2018-05-15T09:13:57.195Z,6.82
2018-05-15T09:16:24.675Z,6.37
2018-05-15T09:18:52.136Z,6.97
2018-05-15T09:21:19.599Z,6.03
2018-05-15T09:23:47.085Z,6.30
2018-05-15T09:26:14.559Z,6.05
2018-05-15T09:28:42.045Z,6.55
2018-05-15T09:31:09.475Z,5.93
2018-05-15T09:33:41.931Z,6.18
2018-05-15T09:36:09.372Z,6.22
2018-05-15T09:38:36.849Z,6.05
2018-05-15T09:41:04.305Z,6.00
2018-05-15T09:46:26.371Z,5.70
2018-05-15T09:48:53.933Z,6.07
2018-05-15T09:51:21.379Z,5.85
2018-05-15T09:53:48.834Z,6.40
2018-05-15T09:56:16.281Z,6.00
2018-05-15T09:58:43.753Z,5.97
2018-05-15T10:01:12.199Z,6.37
2018-05-15T10:03:39.687Z,6.05
2018-05-15T10:06:07.150Z,5.93
2018-05-15T10:08:34.600Z,6.25
2018-05-15T10:11:02.033Z,5.93
2018-05-15T10:13:29.499Z,6.32
2018-05-15T10:15:56.973Z,6.20
2018-05-15T10:18:24.440Z,5.60
2018-05-15T10:20:51.925Z,5.62
2018-05-15T10:23:19.423Z,5.53
2018-05-15T10:25:46.879Z,6.20
2018-05-15T10:28:14.302Z,6.12
2018-05-15T10:30:41.742Z,6.18
2018-05-15T10:33:09.208Z,5.65
2018-05-15T10:35:36.671Z,6.22
2018-05-15T10:38:04.127Z,5.87
2018-05-15T10:40:31.577Z,6.20
2018-05-15T10:42:59.053Z,5.68
2018-05-15T10:45:26.579Z,6.93
2018-05-15T10:47:54.019Z,6.50
2018-05-15T10:50:21.882Z,6.53
2018-05-15T10:52:49.360Z,6.37
2018-05-15T10:55:16.838Z,7.60
2018-05-15T10:57:44.280Z,6.87
2018-05-15T11:00:11.726Z,6.18
2018-05-15T11:02:39.253Z,6.47
2018-05-15T11:05:06.847Z,5.62
2018-05-15T11:07:34.304Z,5.85
2018-05-15T11:10:01.793Z,5.43
2018-05-15T11:12:29.257Z,6.07
2018-05-15T11:14:56.697Z,7.03
2018-05-15T11:17:24.151Z,5.07
2018-05-15T11:20:03.516Z,5.87
2018-05-15T11:22:42.703Z,5.65
2018-05-15T11:25:10.166Z,6.47
2018-05-15T11:27:37.618Z,5.00
2018-05-15T11:30:05.078Z,4.90
2018-05-15T11:32:32.532Z,5.53
2018-05-15T11:35:00.049Z,5.62
2018-05-15T11:37:27.541Z,5.28
2018-05-15T11:39:55.020Z,4.85
2018-05-15T11:42:22.476Z,4.60
2018-05-15T11:44:49.920Z,4.80
2018-05-15T11:47:17.468Z,5.10
2018-05-15T11:49:46.636Z,4.12
2018-05-15T11:52:13.775Z,4.37
2018-05-15T11:54:40.612Z,3.90
2018-05-15T11:57:08.148Z,4.60
2018-05-15T11:59:35.609Z,5.70
2018-05-15T12:02:03.275Z,4.65
2018-05-15T12:04:30.699Z,4.18
2018-05-15T12:06:58.696Z,4.75
2018-05-15T12:09:26.184Z,4.50
2018-05-15T12:11:53.675Z,4.07
2018-05-15T12:14:21.143Z,4.35
2018-05-15T12:16:48.653Z,4.43
2018-05-15T12:19:16.112Z,4.60
2018-05-15T12:21:43.564Z,5.07
2018-05-15T12:24:11.017Z,5.12
2018-05-15T12:26:38.482Z,31.98
2018-05-15T12:29:05.936Z,26.70
2018-05-15T12:31:33.395Z,7.72
2018-05-15T12:34:00.833Z,5.53
2018-05-15T12:36:28.259Z,4.72
2018-05-15T12:38:56.434Z,4.97
2018-05-15T12:41:23.988Z,5.70
2018-05-15T12:43:51.396Z,5.18
2018-05-15T12:46:18.862Z,5.15
2018-05-15T12:48:46.444Z,4.03
2018-05-15T12:51:13.771Z,4.53
2018-05-15T12:53:41.196Z,4.45
2018-05-15T12:56:08.630Z,5.07
2018-05-15T12:58:36.110Z,4.10
2018-05-15T13:01:03.574Z,4.40
2018-05-15T13:03:31.018Z,4.10
2018-05-15T13:05:58.506Z,4.30
2018-05-15T13:08:25.970Z,4.20
2018-05-15T13:10:53.457Z,4.28
2018-05-15T13:13:20.931Z,4.10
2018-05-15T13:15:48.416Z,4.28
2018-05-15T13:18:15.890Z,4.50
2018-05-15T13:20:43.325Z,4.20
2018-05-15T13:23:11.019Z,4.35
2018-05-15T13:25:38.448Z,4.80
2018-05-15T13:28:06.726Z,4.57
2018-05-15T13:30:34.252Z,4.47
2018-05-15T13:33:01.756Z,5.35
2018-05-15T13:35:29.346Z,5.18
2018-05-15T13:37:56.709Z,5.10
2018-05-15T13:40:24.211Z,5.12
2018-05-15T13:42:51.671Z,5.30
2018-05-15T13:45:19.150Z,5.30
2018-05-15T13:47:46.613Z,5.03
2018-05-15T13:50:14.166Z,4.07
2018-05-15T13:52:41.688Z,4.00
2018-05-15T13:55:09.152Z,3.10
2018-05-15T13:57:36.634Z,3.33
2018-05-15T14:00:04.169Z,3.12
2018-05-15T14:02:31.615Z,3.10
2018-05-15T14:04:59.217Z,2.92
2018-05-15T14:07:26.756Z,3.10
2018-05-15T14:09:54.209Z,3.45
2018-05-15T14:12:21.679Z,3.28
2018-05-15T14:14:49.403Z,3.33
2018-05-15T14:17:17.058Z,3.20
2018-05-15T14:19:44.512Z,2.97
2018-05-15T14:22:11.988Z,3.25
2018-05-15T14:24:39.502Z,4.10
2018-05-15T14:27:06.923Z,3.70
2018-05-15T14:29:34.376Z,4.10
2018-05-15T14:32:01.841Z,3.70
2018-05-15T14:34:29.323Z,4.00
2018-05-15T14:36:56.948Z,4.20
2018-05-15T14:39:24.530Z,4.12
2018-05-15T14:42:03.748Z,4.40
2018-05-15T14:44:31.214Z,4.50
2018-05-15T14:46:59.272Z,4.40
2018-05-15T14:49:28.428Z,4.82
2018-05-15T14:51:56.175Z,5.62
2018-05-15T14:54:23.667Z,5.45
2018-05-15T14:56:51.156Z,5.10
2018-05-15T14:59:18.651Z,5.12
2018-05-15T15:01:51.075Z,5.00
2018-05-15T15:04:18.527Z,4.60
2018-05-15T15:06:46.081Z,6.07
2018-05-15T15:09:13.559Z,5.90
2018-05-15T15:11:41.061Z,4.50
2018-05-15T15:14:08.572Z,4.60
2018-05-15T15:16:36.261Z,4.35
2018-05-15T15:19:03.839Z,4.50
2018-05-15T15:21:31.382Z,6.43
2018-05-15T15:23:58.976Z,5.20
2018-05-15T15:26:27.388Z,4.30
2018-05-15T15:28:55.099Z,4.62
2018-05-15T15:31:23.405Z,4.78
2018-05-15T15:33:50.925Z,4.78
2018-05-15T15:36:18.738Z,4.72
2018-05-15T15:38:46.779Z,4.70
2018-05-15T15:41:14.901Z,4.70
2018-05-15T15:43:42.449Z,4.80
2018-05-15T15:46:09.948Z,4.70
2018-05-15T15:48:37.681Z,4.80
2018-05-15T15:51:05.167Z,4.77
2018-05-15T15:53:32.640Z,5.43
2018-05-15T15:56:00.171Z,4.57
2018-05-15T15:58:27.638Z,5.18
2018-05-15T16:00:55.088Z,5.28
2018-05-15T16:03:23.415Z,4.97
2018-05-15T16:05:51.218Z,5.10
2018-05-15T16:08:18.691Z,7.43
2018-05-15T16:10:47.072Z,5.67
2018-05-15T16:13:19.575Z,6.07
2018-05-15T16:15:47.263Z,5.87
2018-05-15T16:18:14.862Z,5.85
2018-05-15T16:20:43.458Z,5.53
2018-05-15T16:23:10.982Z,5.50
2018-05-15T16:25:38.438Z,5.70
2018-05-15T16:28:05.893Z,5.40
2018-05-15T16:30:33.339Z,5.83
2018-05-15T16:33:10.516Z,5.67
2018-05-15T16:35:38.063Z,6.00
2018-05-15T16:38:06.449Z,5.72
2018-05-15T16:40:33.939Z,5.62
2018-05-15T16:43:01.496Z,6.12
2018-05-15T16:45:28.951Z,6.10
2018-05-15T16:47:56.459Z,6.20
2018-05-15T16:50:24.297Z,5.85
2018-05-15T16:52:51.755Z,6.18
2018-05-15T16:55:19.220Z,6.10
2018-05-15T16:57:47.039Z,5.62
2018-05-15T17:00:14.575Z,5.90
2018-05-15T17:02:42.039Z,6.20
2018-05-15T17:05:09.493Z,6.20
2018-05-15T17:07:36.944Z,5.80
2018-05-15T17:10:04.457Z,5.90
2018-05-15T17:12:32.425Z,5.77
2018-05-15T17:14:59.940Z,6.05
2018-05-15T17:17:27.371Z,5.70
2018-05-15T17:19:54.909Z,5.57
2018-05-15T17:22:22.354Z,5.20
2018-05-15T17:24:49.837Z,4.03
2018-05-15T17:27:17.313Z,4.20
2018-05-15T17:29:44.835Z,3.87
2018-05-15T17:32:12.344Z,3.50
2018-05-15T17:34:39.817Z,4.18
2018-05-15T17:37:07.272Z,3.80
2018-05-15T17:39:34.777Z,4.00
2018-05-15T17:42:02.246Z,4.07
2018-05-15T17:44:29.700Z,4.18
2018-05-15T17:46:57.166Z,3.70
2018-05-15T17:49:25.482Z,3.72
2018-05-15T17:51:52.998Z,3.70
2018-05-15T17:54:21.302Z,4.10
2018-05-15T17:56:48.741Z,3.87
2018-05-15T17:59:16.212Z,3.90
2018-05-15T18:01:43.664Z,3.87
2018-05-15T18:04:11.146Z,3.97
2018-05-15T18:06:38.596Z,4.20
2018-05-15T18:09:06.040Z,4.20
2018-05-15T18:11:33.520Z,4.72
2018-05-15T18:14:00.951Z,4.62
2018-05-15T18:16:28.431Z,5.00
2018-05-15T18:18:55.892Z,4.40
2018-05-15T18:21:23.437Z,4.43
2018-05-15T18:23:50.804Z,5.10
2018-05-15T18:26:18.286Z,4.50
2018-05-15T18:28:45.777Z,4.43
2018-05-15T18:31:13.205Z,4.90
2018-05-15T18:33:40.686Z,5.22
2018-05-15T18:36:08.165Z,5.20
2018-05-15T18:38:35.611Z,5.87
2018-05-15T18:41:03.135Z,6.07
2018-05-15T18:43:30.591Z,6.18
2018-05-15T18:45:58.056Z,6.30
2018-05-15T18:48:25.514Z,6.30
2018-05-15T18:50:53.135Z,6.18
2018-05-15T18:53:20.570Z,6.22
2018-05-15T18:55:48.116Z,6.20
2018-05-15T18:58:15.624Z,6.55
2018-05-15T19:00:43.161Z,6.40
2018-05-15T19:03:10.626Z,6.10
2018-05-15T19:05:38.082Z,5.80
2018-05-15T19:08:05.631Z,5.43
2018-05-15T19:10:33.088Z,5.65
2018-05-15T19:13:00.594Z,5.60
2018-05-15T19:15:28.313Z,5.55
2018-05-15T19:17:55.841Z,5.90
2018-05-15T19:20:23.328Z,4.97
2018-05-15T19:22:50.865Z,5.28
2018-05-15T19:25:18.364Z,3.90
2018-05-15T19:27:46.805Z,3.57
2018-05-15T19:30:14.348Z,3.10
2018-05-15T19:32:41.870Z,3.15
2018-05-15T19:35:09.397Z,3.22
2018-05-15T19:37:36.832Z,3.37
2018-05-15T19:40:10.011Z,2.70
2018-05-15T19:42:42.753Z,2.60
2018-05-15T19:45:10.797Z,2.97
2018-05-15T19:47:38.267Z,2.90
2018-05-15T19:50:05.775Z,2.90
2018-05-15T19:52:57.138Z,2.90
2018-05-15T19:55:24.826Z,2.97
2018-05-15T19:57:52.313Z,3.10
2018-05-15T20:00:20.081Z,3.10
2018-05-15T20:02:47.653Z,3.00
2018-05-15T20:05:15.165Z,3.30
2018-05-15T20:07:42.663Z,5.32
2018-05-15T20:10:10.141Z,5.00
2018-05-15T20:12:37.583Z,3.40
2018-05-15T20:15:05.062Z,3.47
2018-05-15T20:17:32.498Z,3.58
2018-05-15T20:19:59.980Z,3.42
2018-05-15T20:22:27.586Z,3.62
2018-05-15T20:24:57.071Z,3.45
2018-05-15T20:27:24.555Z,3.70
2018-05-15T20:29:52.011Z,3.87
2018-05-15T20:32:19.513Z,4.07
2018-05-15T20:34:50.084Z,4.32
2018-05-15T20:37:17.462Z,4.80
2018-05-15T20:39:44.908Z,4.43
2018-05-15T20:42:12.506Z,4.40
2018-05-15T20:44:39.896Z,4.40
2018-05-15T20:47:08.325Z,4.10
2018-05-15T20:49:35.809Z,4.23
2018-05-15T20:52:03.307Z,4.03
2018-05-15T20:54:30.762Z,4.20
2018-05-15T20:56:58.196Z,4.00
2018-05-15T20:59:25.663Z,4.43
2018-05-15T21:01:53.136Z,5.07
2018-05-15T21:04:21.229Z,5.85
2018-05-15T21:06:48.681Z,5.55
2018-05-15T21:09:16.534Z,5.33
2018-05-15T21:11:43.968Z,5.50
2018-05-15T21:14:11.481Z,5.35
2018-05-15T21:16:38.923Z,5.37
2018-05-15T21:19:06.381Z,5.35
2018-05-15T21:21:33.820Z,5.75
2018-05-15T21:24:01.277Z,5.70
2018-05-15T21:26:28.868Z,5.82
2018-05-15T21:28:56.326Z,5.93
2018-05-15T21:31:23.816Z,5.93
2018-05-15T21:33:51.269Z,6.80
2018-05-15T21:36:19.568Z,6.32
2018-05-15T21:38:47.518Z,6.05
2018-05-15T21:41:17.154Z,6.53
2018-05-15T21:43:44.994Z,6.30
2018-05-15T21:46:12.577Z,6.70
2018-05-15T21:48:41.448Z,7.07
2018-05-15T21:51:09.061Z,7.00
2018-05-15T21:54:00.218Z,6.85
2018-05-15T21:56:29.122Z,6.70
2018-05-15T21:58:57.381Z,6.95
2018-05-15T22:01:25.547Z,7.00
2018-05-15T22:04:07.364Z,7.00
2018-05-15T22:06:36.909Z,7.10
2018-05-15T22:09:05.409Z,7.50
2018-05-15T22:11:44.544Z,6.95
2018-05-15T22:14:24.228Z,7.15
2018-05-15T22:17:03.586Z,7.80
2018-05-15T22:19:42.943Z,7.20
2018-05-15T22:22:29.643Z,7.50
2018-05-15T22:24:57.354Z,7.55
2018-05-15T22:27:24.826Z,7.70
2018-05-15T22:29:52.614Z,7.95
2018-05-15T22:32:20.065Z,7.60
2018-05-15T22:34:47.939Z,7.70
2018-05-15T22:37:15.605Z,7.53
2018-05-15T22:39:43.058Z,7.72
2018-05-15T22:42:10.545Z,7.80
2018-05-15T22:44:38.104Z,6.75
2018-05-15T22:47:05.580Z,7.53
2018-05-15T22:49:33.036Z,7.40
2018-05-15T22:52:00.585Z,6.97
2018-05-15T22:54:28.111Z,7.28
2018-05-15T22:56:55.624Z,6.70
2018-05-15T22:59:23.065Z,7.03
2018-05-15T23:01:50.768Z,6.85
2018-05-15T23:04:18.600Z,6.60
2018-05-15T23:06:46.106Z,6.60
2018-05-15T23:09:13.572Z,6.50
2018-05-15T23:11:41.002Z,6.80
2018-05-15T23:14:08.507Z,6.68
2018-05-15T23:16:36.053Z,7.05
2018-05-15T23:19:03.640Z,6.85
2018-05-15T23:21:31.309Z,7.07
2018-05-15T23:26:52.035Z,6.43
2018-05-15T23:29:19.595Z,6.35
2018-05-15T23:31:46.963Z,6.43
2018-05-15T23:34:14.401Z,6.50
2018-05-15T23:36:41.840Z,6.80
2018-05-15T23:39:09.295Z,6.30
2018-05-15T23:41:36.804Z,6.65
2018-05-15T23:44:04.978Z,7.10
2018-05-15T23:46:32.438Z,6.20
2018-05-15T23:48:59.911Z,6.47
2018-05-15T23:51:27.376Z,6.65
2018-05-15T23:53:54.832Z,6.53
2018-05-15T23:56:22.271Z,6.80
2018-05-15T23:58:49.785Z,6.65
